^^
WestSenecaWeather Station Historical Data
 
Daily Summary for April 27, 2017 Units:  English    Metric   Both
Daily Weekly Monthly Yearly Custom

Warning: Division by zero in C:\xampp\htdocs\weather\WU-History-inc.php on line 1267

Notice: Undefined variable: return in C:\xampp\htdocs\weather\WU-History-inc.php on line 1288
  Current: High: Low: Average:
Temperature: 56.0 °F 58.7 °F 55.8 °F 56.6 °F
Dew Point: 53.7 °F 55.8 °F 53.2 °F 54.3 °F
Humidity: 92% 94% 90% 92%
Wind Speed: 0.0mph 0.0mph 0.0mph 0mph
Wind Gust: 0.0mph 0.0mph - -
Wind Calm - -
Pressure: 29.63 in 29.67 in 29.63 in -
Precipitation: 0.00 in      
Historical Graphs
 
 
Tabular Data for April 27, 2017
Time Temperature Dew Point Pressure Wind Wind Speed Wind Gust Humidity Rainfall Rate (Hourly) solar
00:00 58.7 °F 55.8 °F 29.66 in Calm     90% 0.00 in 0.0 W/m2
00:05 58.5 °F 55.6 °F 29.66 in Calm     90% 0.00 in 0.0 W/m2
00:10 58.4 °F 55.5 °F 29.66 in Calm     90% 0.00 in 0.0 W/m2
00:15 58.2 °F 55.6 °F 29.66 in Calm     91% 0.00 in 0.0 W/m2
00:20 58.2 °F 55.6 °F 29.66 in Calm     91% 0.00 in 0.0 W/m2
00:25 57.9 °F 55.3 °F 29.67 in Calm     91% 0.00 in 0.0 W/m2
00:30 57.8 °F 55.2 °F 29.67 in Calm     91% 0.00 in 0.0 W/m2
00:35 57.7 °F 55.1 °F 29.67 in Calm     91% 0.00 in 0.0 W/m2
00:40 57.6 °F 55.3 °F 29.66 in Calm     92% 0.00 in 0.0 W/m2
00:45 57.5 °F 55.2 °F 29.66 in Calm     92% 0.00 in 0.0 W/m2
00:50 57.3 °F 55.0 °F 29.66 in Calm     92% 0.00 in 0.0 W/m2
00:55 57.1 °F 54.8 °F 29.66 in Calm     92% 0.00 in 0.0 W/m2
01:00 56.9 °F 54.6 °F 29.66 in Calm     92% 0.00 in 0.0 W/m2
01:05 56.8 °F 54.5 °F 29.66 in Calm     92% 0.00 in 0.0 W/m2
01:10 56.7 °F 54.4 °F 29.66 in Calm     92% 0.00 in 0.0 W/m2
01:15 56.8 °F 54.8 °F 29.66 in Calm     93% 0.00 in 0.0 W/m2
01:20 56.8 °F 54.8 °F 29.66 in Calm     93% 0.00 in 0.0 W/m2
01:25 56.7 °F 54.4 °F 29.66 in Calm     92% 0.00 in 0.0 W/m2
01:30 56.5 °F 54.2 °F 29.66 in Calm     92% 0.00 in 0.0 W/m2
01:35 56.4 °F 54.4 °F 29.66 in Calm     93% 0.00 in 0.0 W/m2
01:40 56.4 °F 54.4 °F 29.66 in Calm     93% 0.00 in 0.0 W/m2
01:45 56.3 °F 54.0 °F 29.66 in Calm     92% 0.00 in 0.0 W/m2
01:50 56.1 °F 53.8 °F 29.66 in Calm     92% 0.00 in 0.0 W/m2
01:55 56.1 °F 54.1 °F 29.65 in Calm     93% 0.00 in 0.0 W/m2
02:00 56.3 °F 54.3 °F 29.65 in Calm     93% 0.00 in 0.0 W/m2
02:05 56.5 °F 54.8 °F 29.66 in Calm     94% 0.00 in 0.0 W/m2
02:10 56.6 °F 54.9 °F 29.65 in Calm     94% 0.00 in 0.0 W/m2
02:15 56.7 °F 54.7 °F 29.65 in Calm     93% 0.00 in 0.0 W/m2
02:20 56.6 °F 54.6 °F 29.65 in Calm     93% 0.00 in 0.0 W/m2
02:25 56.5 °F 54.5 °F 29.65 in Calm     93% 0.00 in 0.0 W/m2
02:30 56.5 °F 54.5 °F 29.65 in Calm     93% 0.00 in 0.0 W/m2
02:35 56.4 °F 54.4 °F 29.65 in Calm     93% 0.00 in 0.0 W/m2
02:40 56.3 °F 54.3 °F 29.65 in Calm     93% 0.00 in 0.0 W/m2
02:45 56.2 °F 54.2 °F 29.65 in Calm     93% 0.00 in 0.0 W/m2
02:50 56.2 °F 54.2 °F 29.65 in Calm     93% 0.00 in 0.0 W/m2
02:55 56.2 °F 54.2 °F 29.65 in Calm     93% 0.00 in 0.0 W/m2
03:00 56.3 °F 54.3 °F 29.65 in Calm     93% 0.00 in 0.0 W/m2
03:05 56.3 °F 54.0 °F 29.64 in Calm     92% 0.00 in 0.0 W/m2
03:10 56.2 °F 53.9 °F 29.64 in Calm     92% 0.00 in 0.0 W/m2
03:15 56.2 °F 54.2 °F 29.64 in Calm     93% 0.00 in 0.0 W/m2
03:20 56.2 °F 53.9 °F 29.64 in Calm     92% 0.00 in 0.0 W/m2
03:25 56.1 °F 53.8 °F 29.64 in Calm     92% 0.00 in 0.0 W/m2
03:30 56.1 °F 53.8 °F 29.64 in Calm     92% 0.00 in 0.0 W/m2
03:35 56.2 °F 54.2 °F 29.63 in Calm     93% 0.00 in 0.0 W/m2
03:40 56.3 °F 54.0 °F 29.63 in Calm     92% 0.00 in 0.0 W/m2
03:45 56.2 °F 53.9 °F 29.63 in Calm     92% 0.00 in 0.0 W/m2
03:50 56.2 °F 53.9 °F 29.63 in Calm     92% 0.00 in 0.0 W/m2
03:55 56.2 °F 53.9 °F 29.63 in Calm     92% 0.00 in 0.0 W/m2
04:00 56.2 °F 53.9 °F 29.63 in Calm     92% 0.00 in 0.0 W/m2
04:05 56.5 °F 54.2 °F 29.63 in Calm     92% 0.00 in 0.0 W/m2
04:10 56.5 °F 53.9 °F 29.63 in Calm     91% 0.00 in 0.0 W/m2
04:15 56.3 °F 53.7 °F 29.63 in Calm     91% 0.00 in 0.0 W/m2
04:20 56.2 °F 53.6 °F 29.63 in Calm     91% 0.00 in 0.0 W/m2
04:25 56.2 °F 53.6 °F 29.63 in Calm     91% 0.00 in 0.0 W/m2
04:30 56.1 °F 53.5 °F 29.63 in Calm     91% 0.00 in 0.0 W/m2
04:35 56.0 °F 53.4 °F 29.63 in Calm     91% 0.00 in 0.0 W/m2
04:40 55.9 °F 53.3 °F 29.63 in Calm     91% 0.00 in 0.0 W/m2
04:45 55.8 °F 53.2 °F 29.63 in Calm     91% 0.00 in 0.0 W/m2
04:50 55.9 °F 53.6 °F 29.63 in Calm     92% 0.00 in 0.0 W/m2
04:51 55.9 °F 53.6 °F 29.63 in Calm     92% 0.00 in 0.0 W/m2
04:56 55.9 °F 53.6 °F 29.63 in Calm     92% 0.00 in 0.0 W/m2
05:01 56.0 °F 53.7 °F 29.63 in Calm     92% 0.00 in 0.0 W/m2
west seneca weather
Compliments of Weather Underground - 2 mb